createdAt,value
2019-06-26T00:01:27.407Z,89.45
2019-06-26T00:03:55.919Z,89.16
2019-06-26T00:06:24.305Z,89.80
2019-06-26T00:08:52.798Z,90.28
2019-06-26T00:11:23.066Z,90.08
2019-06-26T00:13:51.455Z,90.04
2019-06-26T00:16:20.124Z,90.38
2019-06-26T00:18:48.541Z,90.47
2019-06-26T00:21:17.012Z,90.57
2019-06-26T00:23:45.413Z,90.75
2019-06-26T00:26:13.811Z,91.02
2019-06-26T00:28:42.226Z,91.60
2019-06-26T00:31:10.801Z,91.36
2019-06-26T00:33:39.197Z,91.26
2019-06-26T00:36:07.595Z,91.40
2019-06-26T00:38:35.980Z,92.10
2019-06-26T00:41:04.380Z,91.83
2019-06-26T00:43:41.989Z,91.72
2019-06-26T00:46:03.138Z,92.17
2019-06-26T00:48:31.545Z,92.28
2019-06-26T00:50:59.934Z,92.97
2019-06-26T00:53:28.381Z,93.22
2019-06-26T00:55:56.879Z,93.32
2019-06-26T00:58:25.335Z,93.70
2019-06-26T01:00:54.095Z,93.85
2019-06-26T01:03:22.481Z,95.58
2019-06-26T01:05:50.981Z,96.12
2019-06-26T01:08:19.386Z,96.07
2019-06-26T01:10:47.929Z,95.21
2019-06-26T01:13:16.350Z,95.12
2019-06-26T01:15:44.821Z,95.25
2019-06-26T01:18:13.287Z,95.61
2019-06-26T01:20:41.942Z,95.57
2019-06-26T01:23:10.405Z,96.07
2019-06-26T01:25:38.803Z,95.67
2019-06-26T01:28:07.262Z,95.84
2019-06-26T01:30:35.810Z,96.55
2019-06-26T01:33:04.276Z,96.80
2019-06-26T01:35:32.702Z,97.16
2019-06-26T01:38:01.132Z,96.35
2019-06-26T01:40:29.522Z,96.35
2019-06-26T01:42:57.987Z,96.54
2019-06-26T01:45:26.338Z,96.49
2019-06-26T01:47:54.734Z,96.00
2019-06-26T01:50:23.128Z,97.20
2019-06-26T01:52:51.699Z,96.64
2019-06-26T01:55:20.092Z,96.85
2019-06-26T01:57:48.653Z,97.63
2019-06-26T02:00:17.407Z,97.07
2019-06-26T02:02:45.847Z,97.42
2019-06-26T02:05:14.679Z,98.53
2019-06-26T02:07:43.065Z,98.83
2019-06-26T02:10:11.898Z,98.83
2019-06-26T02:12:40.522Z,99.07
2019-06-26T02:15:10.049Z,99.17
2019-06-26T02:17:38.445Z,98.90
2019-06-26T02:20:07.893Z,98.63
2019-06-26T02:22:36.310Z,98.20
2019-06-26T02:25:05.743Z,99.53
2019-06-26T02:27:34.223Z,99.08
2019-06-26T02:30:02.615Z,99.61
2019-06-26T02:32:31.025Z,99.74
2019-06-26T02:34:59.441Z,100.00
2019-06-26T02:37:27.836Z,99.96
2019-06-26T02:39:56.246Z,100.00
2019-06-26T02:42:24.648Z,100.00
2019-06-26T02:44:54.531Z,100.00
2019-06-26T02:47:23.186Z,100.00
2019-06-26T02:49:51.555Z,100.00
2019-06-26T02:52:20.015Z,99.57
2019-06-26T02:54:48.469Z,98.87
2019-06-26T02:57:17.002Z,98.44
2019-06-26T02:59:45.395Z,98.53
2019-06-26T03:02:13.803Z,98.34
2019-06-26T03:04:42.217Z,98.93
2019-06-26T03:07:10.635Z,98.71
2019-06-26T03:09:39.129Z,97.44
2019-06-26T03:12:07.536Z,97.94
2019-06-26T03:14:35.932Z,98.33
2019-06-26T03:17:04.525Z,98.38
2019-06-26T03:19:32.882Z,98.29
2019-06-26T03:22:01.295Z,97.64
2019-06-26T03:24:29.707Z,97.76
2019-06-26T03:28:34.776Z,97.20
2019-06-26T03:31:03.181Z,97.49
2019-06-26T03:33:31.611Z,97.19
2019-06-26T03:36:00.019Z,97.29
2019-06-26T03:38:28.540Z,97.64
2019-06-26T03:40:56.951Z,97.41
2019-06-26T03:43:25.370Z,97.13
2019-06-26T03:45:53.801Z,97.62
2019-06-26T03:48:22.315Z,96.89
2019-06-26T03:50:50.786Z,96.57
2019-06-26T03:53:19.210Z,95.87
2019-06-26T03:55:47.619Z,96.38
2019-06-26T03:58:16.013Z,95.86
2019-06-26T04:00:44.799Z,95.69
2019-06-26T04:03:13.203Z,96.51
2019-06-26T04:05:41.632Z,97.29
2019-06-26T04:08:10.043Z,97.14
2019-06-26T04:10:38.609Z,96.91
2019-06-26T04:13:07.235Z,96.84
2019-06-26T04:15:41.993Z,96.22
2019-06-26T04:18:05.882Z,96.70
2019-06-26T04:20:34.307Z,96.58
2019-06-26T04:23:02.736Z,95.21
2019-06-26T04:25:31.215Z,94.71
2019-06-26T04:27:59.618Z,94.59
2019-06-26T04:30:28.117Z,94.94
2019-06-26T04:32:56.606Z,95.49
2019-06-26T04:35:25.040Z,96.02
2019-06-26T04:37:53.458Z,96.25
2019-06-26T04:40:22.131Z,95.90
2019-06-26T04:42:50.600Z,95.79
2019-06-26T04:45:19.241Z,95.41
2019-06-26T04:47:48.669Z,95.57
2019-06-26T04:50:17.723Z,95.67
2019-06-26T04:52:46.180Z,95.46
2019-06-26T04:55:15.536Z,95.62
2019-06-26T04:57:44.037Z,94.84
2019-06-26T05:00:13.694Z,93.61
2019-06-26T05:02:42.110Z,93.49
2019-06-26T05:05:11.074Z,93.65
2019-06-26T05:07:41.004Z,93.02
2019-06-26T05:10:10.859Z,92.23
2019-06-26T05:12:39.302Z,91.21
2019-06-26T05:15:08.950Z,90.30
2019-06-26T05:17:37.475Z,90.32
2019-06-26T05:20:11.093Z,89.92
2019-06-26T05:22:39.606Z,88.81
2019-06-26T05:25:08.458Z,88.11
2019-06-26T05:27:37.042Z,87.79
2019-06-26T05:30:10.129Z,87.35
2019-06-26T05:32:38.740Z,87.40
2019-06-26T05:35:08.278Z,86.71
2019-06-26T05:37:36.777Z,86.32
2019-06-26T05:40:12.594Z,85.86
2019-06-26T05:42:41.098Z,84.97
2019-06-26T05:45:10.342Z,83.98
2019-06-26T05:47:38.934Z,83.21
2019-06-26T05:50:09.726Z,83.42
2019-06-26T05:52:41.990Z,83.11
2019-06-26T05:55:08.954Z,82.80
2019-06-26T05:57:37.446Z,81.44
2019-06-26T06:00:10.845Z,81.71
2019-06-26T06:02:39.338Z,80.66
2019-06-26T06:05:08.962Z,80.75
2019-06-26T06:07:37.451Z,80.88
2019-06-26T06:10:07.005Z,81.48
2019-06-26T06:12:35.411Z,81.81
2019-06-26T06:15:06.108Z,81.50
2019-06-26T06:17:34.508Z,82.12
2019-06-26T06:20:03.505Z,82.19
2019-06-26T06:22:31.899Z,83.22
2019-06-26T06:25:00.330Z,82.81
2019-06-26T06:27:28.738Z,83.08
2019-06-26T06:29:57.225Z,82.27
2019-06-26T06:32:25.636Z,80.86
2019-06-26T06:34:54.069Z,79.51
2019-06-26T06:37:22.506Z,78.41
2019-06-26T06:39:50.929Z,76.63
2019-06-26T06:42:19.414Z,76.30
2019-06-26T06:44:47.878Z,75.00
2019-06-26T06:47:16.300Z,74.56
2019-06-26T06:49:44.738Z,73.03
2019-06-26T06:52:16.495Z,73.04
2019-06-26T06:54:43.307Z,73.10
2019-06-26T06:57:11.719Z,72.87
2019-06-26T06:59:40.151Z,71.77
2019-06-26T07:02:08.562Z,70.54
2019-06-26T07:04:36.995Z,69.65
2019-06-26T07:07:08.677Z,68.26
2019-06-26T07:09:37.088Z,66.69
2019-06-26T07:12:05.512Z,66.82
2019-06-26T07:14:33.928Z,66.26
2019-06-26T07:17:02.332Z,65.32
2019-06-26T07:19:30.741Z,64.02
2019-06-26T07:21:59.152Z,62.74
2019-06-26T07:24:27.571Z,61.94
2019-06-26T07:26:55.996Z,61.62
2019-06-26T07:29:25.551Z,62.27
2019-06-26T07:31:54.039Z,61.95
2019-06-26T07:34:22.628Z,61.60
2019-06-26T07:36:51.054Z,62.25
2019-06-26T07:39:19.526Z,60.08
2019-06-26T07:41:47.952Z,59.18
2019-06-26T07:44:16.423Z,59.48
2019-06-26T07:46:44.838Z,60.04
2019-06-26T07:49:13.266Z,60.09
2019-06-26T07:51:41.731Z,58.86
2019-06-26T07:54:10.116Z,57.66
2019-06-26T07:56:38.552Z,55.86
2019-06-26T07:59:06.967Z,55.90
2019-06-26T08:01:35.433Z,54.75
2019-06-26T08:04:03.906Z,54.76
2019-06-26T08:06:32.349Z,54.74
2019-06-26T08:09:00.822Z,52.85
2019-06-26T08:11:29.247Z,52.61
2019-06-26T08:13:57.679Z,51.57
2019-06-26T08:16:26.088Z,50.76
2019-06-26T08:18:54.500Z,50.18
2019-06-26T08:21:22.903Z,50.45
2019-06-26T08:23:51.314Z,51.21
2019-06-26T08:26:19.751Z,50.81
2019-06-26T08:28:48.169Z,49.90
2019-06-26T08:31:16.582Z,49.17
2019-06-26T08:33:45.074Z,50.21
2019-06-26T08:36:13.558Z,49.39
2019-06-26T08:38:41.964Z,49.20
2019-06-26T08:41:10.385Z,49.34
2019-06-26T08:43:38.845Z,46.73
2019-06-26T08:46:07.316Z,45.90
2019-06-26T08:48:39.957Z,44.52
2019-06-26T08:51:05.829Z,44.67
2019-06-26T08:53:34.409Z,42.97
2019-06-26T08:56:03.082Z,43.05
2019-06-26T08:58:31.568Z,42.63
2019-06-26T09:00:59.966Z,41.39
2019-06-26T09:03:28.371Z,39.46
2019-06-26T09:05:56.781Z,38.10
2019-06-26T09:08:25.318Z,39.00
2019-06-26T09:10:53.865Z,38.40
2019-06-26T09:13:22.273Z,38.39
2019-06-26T09:15:50.679Z,38.33
2019-06-26T09:18:34.347Z,37.21
2019-06-26T09:20:49.247Z,37.09
2019-06-26T09:23:17.662Z,36.72
2019-06-26T09:25:46.073Z,36.04
2019-06-26T09:28:14.483Z,37.17
2019-06-26T09:30:42.866Z,37.13
2019-06-26T09:33:11.297Z,36.95
2019-06-26T09:35:39.704Z,37.50
2019-06-26T09:38:08.106Z,37.16
2019-06-26T09:40:36.556Z,36.25
2019-06-26T09:43:04.989Z,36.88
2019-06-26T09:45:33.474Z,36.24
2019-06-26T09:48:01.969Z,35.56
2019-06-26T09:50:30.380Z,35.46
2019-06-26T09:52:58.774Z,35.33
2019-06-26T09:55:27.176Z,35.41
2019-06-26T09:57:55.579Z,34.06
2019-06-26T10:00:24.440Z,34.71
2019-06-26T10:02:52.853Z,34.23
2019-06-26T10:05:21.427Z,33.88
2019-06-26T10:07:50.017Z,33.23
2019-06-26T10:10:18.795Z,33.30
2019-06-26T10:12:47.193Z,34.04
2019-06-26T10:15:15.739Z,34.33
2019-06-26T10:17:44.193Z,33.24
2019-06-26T10:20:14.105Z,31.60
2019-06-26T10:22:42.510Z,32.95
2019-06-26T10:25:11.828Z,33.22
2019-06-26T10:27:40.668Z,32.58
2019-06-26T10:30:10.035Z,32.51
2019-06-26T10:32:38.525Z,32.01
2019-06-26T10:35:07.077Z,32.52
2019-06-26T10:37:35.551Z,32.35
2019-06-26T10:40:04.702Z,31.64
2019-06-26T10:42:33.113Z,32.36
2019-06-26T10:45:01.662Z,32.43
2019-06-26T10:47:30.113Z,32.82
2019-06-26T10:49:58.494Z,31.27
2019-06-26T10:52:26.914Z,29.64
2019-06-26T10:54:55.329Z,28.97
2019-06-26T10:57:23.793Z,29.18
2019-06-26T10:59:55.501Z,29.72
2019-06-26T11:02:22.446Z,28.80
2019-06-26T11:04:50.836Z,28.31
2019-06-26T11:07:19.260Z,28.96
2019-06-26T11:09:47.686Z,28.69
2019-06-26T11:12:16.128Z,30.37
2019-06-26T11:14:44.514Z,30.61
2019-06-26T11:17:12.927Z,29.33
2019-06-26T11:19:44.323Z,28.29
2019-06-26T11:22:11.521Z,28.52
2019-06-26T11:24:40.038Z,28.17
2019-06-26T11:27:08.534Z,28.20
2019-06-26T11:29:36.904Z,28.36
2019-06-26T11:32:09.148Z,28.76
2019-06-26T11:34:35.528Z,27.93
2019-06-26T11:37:04.704Z,27.73
2019-06-26T11:39:33.318Z,27.75
2019-06-26T11:42:01.784Z,27.56
2019-06-26T11:44:30.331Z,27.27
2019-06-26T11:46:58.878Z,26.76
2019-06-26T11:49:27.296Z,27.19
2019-06-26T11:51:55.743Z,27.09
2019-06-26T11:54:24.158Z,27.88
2019-06-26T11:56:52.586Z,27.25
2019-06-26T11:59:21.034Z,27.33
2019-06-26T12:01:49.492Z,27.76
2019-06-26T12:04:17.991Z,28.95
2019-06-26T12:06:46.507Z,28.29
2019-06-26T12:09:15.064Z,27.26
2019-06-26T12:11:43.439Z,26.99
2019-06-26T12:14:11.930Z,26.67
2019-06-26T12:16:40.369Z,27.36
2019-06-26T12:19:08.799Z,27.50
2019-06-26T12:21:37.207Z,26.30
2019-06-26T12:24:05.622Z,25.33
2019-06-26T12:26:34.017Z,25.59
2019-06-26T12:29:02.456Z,24.61
2019-06-26T12:31:31.171Z,25.56
2019-06-26T12:33:59.627Z,25.80
2019-06-26T12:36:28.010Z,25.92
2019-06-26T12:38:56.520Z,26.18
2019-06-26T12:41:25.070Z,26.02
2019-06-26T12:43:53.467Z,25.46
2019-06-26T12:46:21.882Z,25.91
2019-06-26T12:48:50.283Z,25.80
2019-06-26T12:51:18.687Z,25.12
2019-06-26T12:53:47.106Z,24.44
2019-06-26T12:56:15.575Z,24.00
2019-06-26T12:58:43.988Z,24.66
2019-06-26T13:01:12.396Z,24.35
2019-06-26T13:03:40.807Z,24.42
2019-06-26T13:06:09.238Z,24.89
2019-06-26T13:08:37.678Z,24.80
2019-06-26T13:11:06.153Z,24.49
2019-06-26T13:13:34.698Z,24.31
2019-06-26T13:16:03.126Z,24.16
2019-06-26T13:18:31.601Z,24.09
2019-06-26T13:21:00.212Z,24.56
2019-06-26T13:23:28.624Z,24.27
2019-06-26T13:25:57.030Z,23.39
2019-06-26T13:28:25.436Z,23.57
2019-06-26T13:30:53.941Z,23.34
2019-06-26T13:33:22.420Z,23.71
2019-06-26T13:35:50.883Z,23.95
2019-06-26T13:38:19.358Z,23.98
2019-06-26T13:40:47.776Z,24.79
2019-06-26T13:43:16.183Z,24.51
2019-06-26T13:45:44.683Z,24.11
2019-06-26T13:48:13.151Z,23.25
2019-06-26T13:50:41.567Z,24.43
2019-06-26T13:53:09.978Z,24.61
2019-06-26T13:55:38.469Z,24.71
2019-06-26T13:58:06.961Z,23.75
2019-06-26T14:00:35.369Z,23.95
2019-06-26T14:03:03.839Z,22.55
2019-06-26T14:05:32.393Z,21.50
2019-06-26T14:08:00.793Z,22.73
2019-06-26T14:10:29.223Z,24.52
2019-06-26T14:12:57.797Z,24.11
2019-06-26T14:15:26.256Z,25.11
2019-06-26T14:17:54.662Z,24.45
2019-06-26T14:20:23.187Z,24.08
2019-06-26T14:22:51.655Z,24.73
2019-06-26T14:25:20.057Z,25.06
2019-06-26T14:27:48.538Z,23.79
2019-06-26T14:30:17.395Z,23.84
2019-06-26T14:32:45.838Z,23.99
2019-06-26T14:35:14.252Z,25.04
2019-06-26T14:37:42.693Z,26.18
2019-06-26T14:40:12.237Z,24.96
2019-06-26T14:42:40.785Z,24.80
2019-06-26T14:45:09.630Z,23.97
2019-06-26T14:47:38.085Z,24.19
2019-06-26T14:50:07.526Z,24.34
2019-06-26T14:52:36.013Z,25.17
2019-06-26T14:55:08.272Z,25.10
2019-06-26T14:57:36.760Z,24.37
2019-06-26T15:00:09.101Z,25.09
2019-06-26T15:02:37.522Z,24.65
2019-06-26T15:05:07.599Z,24.67
2019-06-26T15:07:36.041Z,24.57
2019-06-26T15:10:06.996Z,24.21
2019-06-26T15:12:35.496Z,25.17
2019-06-26T15:15:04.392Z,24.64
2019-06-26T15:17:32.872Z,25.32
2019-06-26T15:20:01.294Z,25.35
2019-06-26T15:22:29.696Z,25.46
2019-06-26T15:24:58.111Z,25.66
2019-06-26T15:27:26.537Z,25.76
2019-06-26T15:29:54.932Z,26.41
2019-06-26T15:32:23.395Z,26.69
2019-06-26T15:34:51.868Z,26.12
2019-06-26T15:37:20.316Z,26.68
2019-06-26T15:39:48.707Z,25.85
2019-06-26T15:42:17.173Z,26.40
2019-06-26T15:44:45.640Z,26.39
2019-06-26T15:47:14.044Z,26.99
2019-06-26T15:49:42.532Z,26.76
2019-06-26T15:52:15.410Z,27.74
2019-06-26T15:54:41.165Z,27.74
2019-06-26T15:57:09.663Z,28.32
2019-06-26T15:59:38.077Z,28.31
2019-06-26T16:02:06.495Z,27.95
2019-06-26T16:04:35.292Z,27.33
2019-06-26T16:07:03.967Z,27.59
2019-06-26T16:09:32.409Z,27.25
2019-06-26T16:12:00.865Z,27.26
2019-06-26T16:14:29.240Z,27.78
2019-06-26T16:16:59.358Z,28.19
2019-06-26T16:19:27.772Z,28.39
2019-06-26T16:21:56.193Z,29.21
2019-06-26T16:24:24.654Z,29.10
2019-06-26T16:26:53.026Z,28.82
2019-06-26T16:29:21.431Z,30.28
2019-06-26T16:31:49.856Z,29.79
2019-06-26T16:34:18.400Z,29.76
2019-06-26T16:36:46.878Z,29.37
2019-06-26T16:39:15.390Z,29.41
2019-06-26T16:41:43.922Z,29.83
2019-06-26T16:44:12.321Z,30.63
2019-06-26T16:46:40.818Z,30.92
2019-06-26T16:49:09.178Z,30.86
2019-06-26T16:51:37.612Z,30.47
2019-06-26T16:54:06.005Z,31.29
2019-06-26T16:56:34.400Z,31.28
2019-06-26T16:59:02.879Z,31.06
2019-06-26T17:01:31.295Z,31.60
2019-06-26T17:03:59.699Z,31.02
2019-06-26T17:06:28.169Z,31.96
2019-06-26T17:08:56.637Z,32.21
2019-06-26T17:11:25.296Z,31.90
2019-06-26T17:13:54.006Z,32.39
2019-06-26T17:16:22.480Z,32.05
2019-06-26T17:18:50.893Z,32.07
2019-06-26T17:21:19.351Z,32.19
2019-06-26T17:23:47.862Z,32.62
2019-06-26T17:26:16.301Z,32.96
2019-06-26T17:28:44.694Z,32.67
2019-06-26T17:31:13.112Z,32.68
2019-06-26T17:33:41.563Z,32.58
2019-06-26T17:36:09.935Z,36.56
2019-06-26T17:38:38.435Z,38.58
2019-06-26T17:41:06.870Z,37.95
2019-06-26T17:43:35.359Z,39.25
2019-06-26T17:46:03.838Z,41.49
2019-06-26T17:48:32.421Z,41.38
2019-06-26T17:51:00.914Z,42.02
2019-06-26T17:53:29.350Z,43.45
2019-06-26T17:55:57.800Z,46.84
2019-06-26T17:58:26.279Z,46.80
2019-06-26T18:00:54.713Z,45.90
2019-06-26T18:03:23.178Z,45.25
2019-06-26T18:05:51.569Z,45.54
2019-06-26T18:08:20.066Z,42.05
2019-06-26T18:10:48.537Z,42.39
2019-06-26T18:13:16.982Z,44.01
2019-06-26T18:15:45.379Z,43.92
2019-06-26T18:18:13.855Z,43.94
2019-06-26T18:20:42.389Z,43.55
2019-06-26T18:23:10.848Z,44.29
2019-06-26T18:25:39.266Z,45.60
2019-06-26T18:28:07.716Z,44.84
2019-06-26T18:30:36.275Z,45.39
2019-06-26T18:33:04.737Z,45.48
2019-06-26T18:35:33.131Z,45.43
2019-06-26T18:38:01.840Z,46.75
2019-06-26T18:40:30.334Z,49.23
2019-06-26T18:42:58.760Z,51.20
2019-06-26T18:45:27.253Z,52.11
2019-06-26T18:47:55.749Z,53.52
2019-06-26T18:50:24.157Z,53.98
2019-06-26T18:52:52.624Z,54.70
2019-06-26T18:55:21.060Z,55.38
2019-06-26T18:57:49.552Z,56.19
2019-06-26T19:00:18.732Z,57.28
2019-06-26T19:02:47.342Z,58.12
2019-06-26T19:05:15.982Z,58.46
2019-06-26T19:07:44.389Z,59.04
2019-06-26T19:10:14.066Z,59.48
2019-06-26T19:12:42.612Z,60.33
2019-06-26T19:15:11.612Z,60.85
2019-06-26T19:17:42.454Z,61.86
2019-06-26T19:20:10.913Z,61.86
2019-06-26T19:22:39.443Z,61.97
2019-06-26T19:25:08.319Z,62.30
2019-06-26T19:27:36.895Z,62.45
2019-06-26T19:30:08.899Z,62.48
2019-06-26T19:32:37.711Z,62.98
2019-06-26T19:35:18.111Z,62.83
2019-06-26T19:37:37.201Z,63.43
2019-06-26T19:40:09.208Z,62.98
2019-06-26T19:42:37.830Z,63.02
2019-06-26T19:45:08.579Z,62.96
2019-06-26T19:47:36.994Z,62.78
2019-06-26T19:50:09.365Z,62.55
2019-06-26T19:52:37.894Z,62.62
2019-06-26T19:55:06.476Z,63.30
2019-06-26T19:57:34.905Z,64.15
2019-06-26T20:03:37.985Z,64.44
2019-06-26T20:06:06.516Z,65.16
2019-06-26T20:08:34.929Z,65.45
2019-06-26T20:11:03.363Z,66.03
2019-06-26T20:13:32.031Z,66.85
2019-06-26T20:16:00.487Z,67.85
2019-06-26T20:18:28.929Z,68.71
2019-06-26T20:20:57.414Z,68.66
2019-06-26T20:23:25.839Z,69.30
2019-06-26T20:25:54.261Z,70.00
2019-06-26T20:28:22.827Z,69.96
2019-06-26T20:30:51.301Z,69.91
2019-06-26T20:33:19.963Z,70.52
2019-06-26T20:35:48.425Z,70.52
2019-06-26T20:38:16.835Z,71.35
2019-06-26T20:40:46.208Z,72.43
2019-06-26T20:43:14.785Z,72.83
2019-06-26T20:45:43.230Z,73.06
2019-06-26T20:48:11.642Z,73.35
2019-06-26T20:50:40.079Z,73.67
2019-06-26T20:53:08.503Z,74.63
2019-06-26T20:55:36.962Z,75.09
2019-06-26T20:58:05.364Z,74.96
2019-06-26T21:00:33.794Z,74.65
2019-06-26T21:03:02.483Z,75.30
2019-06-26T21:05:30.987Z,74.91
2019-06-26T21:07:59.453Z,74.82
2019-06-26T21:10:27.995Z,74.90
2019-06-26T21:12:56.481Z,75.21
2019-06-26T21:15:24.899Z,75.65
2019-06-26T21:17:53.332Z,76.92
2019-06-26T21:20:21.759Z,78.53
2019-06-26T21:22:50.179Z,78.58
2019-06-26T21:25:19.860Z,79.00
2019-06-26T21:27:48.514Z,79.92
2019-06-26T21:30:17.260Z,79.76
2019-06-26T21:32:45.673Z,80.01
2019-06-26T21:35:14.085Z,80.13
2019-06-26T21:37:44.060Z,81.04
2019-06-26T21:40:12.772Z,81.75
2019-06-26T21:42:41.330Z,82.24
2019-06-26T21:45:10.105Z,82.80
2019-06-26T21:47:38.602Z,83.06
2019-06-26T21:50:07.362Z,83.26
2019-06-26T21:52:37.361Z,83.48
2019-06-26T21:55:06.947Z,84.71
2019-06-26T21:57:35.505Z,85.04
2019-06-26T22:00:08.610Z,84.91
2019-06-26T22:02:37.115Z,85.06
2019-06-26T22:05:08.235Z,84.91
2019-06-26T22:07:38.456Z,85.31
2019-06-26T22:10:07.739Z,86.54
2019-06-26T22:12:36.233Z,86.71
2019-06-26T22:15:05.592Z,85.96
2019-06-26T22:17:34.028Z,85.87
2019-06-26T22:20:02.522Z,86.24
2019-06-26T22:22:31.042Z,86.47
2019-06-26T22:24:59.536Z,86.67
2019-06-26T22:27:28.012Z,86.11
2019-06-26T22:29:58.131Z,86.09
2019-06-26T22:32:28.723Z,86.12
2019-06-26T22:34:57.461Z,86.70
2019-06-26T22:37:25.879Z,87.73
2019-06-26T22:39:56.569Z,87.62
2019-06-26T22:42:25.071Z,87.48
2019-06-26T22:44:53.530Z,88.14
2019-06-26T22:47:22.696Z,88.03
2019-06-26T22:49:52.813Z,88.12
2019-06-26T22:52:21.255Z,88.06
2019-06-26T22:54:51.829Z,88.33
2019-06-26T22:57:20.415Z,88.40
2019-06-26T22:59:50.511Z,88.78
2019-06-26T23:02:19.885Z,88.98
2019-06-26T23:04:48.595Z,88.43
2019-06-26T23:07:17.061Z,88.39
2019-06-26T23:09:45.594Z,89.05
2019-06-26T23:12:14.080Z,89.65
2019-06-26T23:14:42.678Z,89.39
2019-06-26T23:17:11.402Z,89.95
2019-06-26T23:19:39.827Z,90.61
2019-06-26T23:22:08.268Z,90.64
2019-06-26T23:24:36.682Z,90.43
2019-06-26T23:27:05.372Z,90.34
2019-06-26T23:29:33.950Z,91.02
2019-06-26T23:32:03.516Z,92.05
2019-06-26T23:34:32.037Z,92.99
2019-06-26T23:37:00.464Z,93.36
2019-06-26T23:39:28.911Z,93.20
2019-06-26T23:41:57.341Z,92.52
2019-06-26T23:44:25.824Z,91.97
2019-06-26T23:46:54.230Z,91.57
2019-06-26T23:49:22.639Z,91.34
2019-06-26T23:51:51.063Z,91.76
2019-06-26T23:54:19.484Z,92.74
2019-06-26T23:56:47.910Z,93.40
2019-06-26T23:59:16.416Z,93.89
